Time;durP1;ratioP1;P1;durP2;ratioP2;P2;SDS_P1;SDS_P2;PMS_P1;PMS_P2;Temp;Humidity;BMP_temperature;BMP_pressure;BME280_temperature;BME280_humidity;BME280_pressure;Samples;Min_cycle;Max_cycle;Signal;HPM_P1;HPM_P2
2022/02/08 00:00:19;;;;;;;18.65;5.55;;;6.70;96.80;;;;;;5063893;28;20032;-60
2022/02/08 00:02:21;;;;;;;23.67;5.25;;;6.70;97.30;;;;;;5061040;28;20094;-60
2022/02/08 00:04:48;;;;;;;16.77;4.53;;;6.70;97.80;;;;;;5072804;28;21295;-60
2022/02/08 00:07:13;;;;;;;17.65;4.05;;;6.60;98.20;;;;;;5070279;28;20104;-60
2022/02/08 00:09:39;;;;;;;19.80;5.20;;;6.60;98.70;;;;;;5072602;28;20452;-60
2022/02/08 00:12:05;;;;;;;12.30;3.90;;;6.60;99.10;;;;;;5069866;28;20021;-60
2022/02/08 00:14:31;;;;;;;15.43;5.28;;;6.60;99.50;;;;;;5069730;28;20107;-60
2022/02/08 00:16:56;;;;;;;19.38;5.05;;;6.60;99.70;;;;;;5069719;28;20151;-60
2022/02/08 00:19:22;;;;;;;19.50;4.85;;;6.60;99.90;;;;;;5067097;28;20039;-60
2022/02/08 00:21:47;;;;;;;25.88;5.68;;;6.50;99.90;;;;;;5072370;28;20047;-60
2022/02/08 00:24:13;;;;;;;12.98;4.45;;;6.60;99.90;;;;;;5066819;28;20020;-60
2022/02/08 00:26:38;;;;;;;14.52;5.00;;;6.50;99.90;;;;;;5072337;28;20515;-60
2022/02/08 00:29:04;;;;;;;18.20;5.03;;;6.50;99.90;;;;;;5072292;28;20028;-60
2022/02/08 00:31:30;;;;;;;21.30;5.78;;;6.50;99.90;;;;;;5069621;28;20025;-60
2022/02/08 00:33:56;;;;;;;17.55;5.47;;;6.50;99.90;;;;;;5070830;28;20032;-60
2022/02/08 00:36:22;;;;;;;18.15;5.50;;;6.50;99.90;;;;;;5069494;28;20039;-60
2022/02/08 00:38:49;;;;;;;17.10;4.75;;;6.60;99.90;;;;;;5070849;28;20016;-60
2022/02/08 00:41:15;;;;;;;18.85;5.47;;;6.60;99.90;;;;;;5069217;28;20024;-60
2022/02/08 00:43:53;;;;;;;17.95;6.40;;;6.60;99.90;;;;;;5067437;28;20496;-60
2022/02/08 00:46:41;;;;;;;16.30;6.78;;;6.60;99.90;;;;;;5070318;28;20609;-60
2022/02/08 00:49:09;;;;;;;28.58;7.35;;;6.60;99.90;;;;;;5071303;28;20103;-60
2022/02/08 00:52:00;;;;;;;22.63;8.18;;;6.60;99.90;;;;;;5066438;28;20074;-60
2022/02/08 00:54:23;;;;;;;21.17;7.55;;;6.70;99.90;;;;;;5059993;28;20093;-60
2022/02/08 00:56:49;;;;;;;21.17;8.30;;;6.70;99.90;;;;;;5068507;28;20016;-60
2022/02/08 00:59:14;;;;;;;19.63;8.43;;;6.70;99.90;;;;;;5069230;28;20039;-60
2022/02/08 01:01:40;;;;;;;21.67;8.93;;;6.70;99.90;;;;;;5071647;28;20460;-60
2022/02/08 01:04:08;;;;;;;30.15;10.73;;;6.70;99.90;;;;;;5071791;28;20023;-60
2022/02/08 01:06:35;;;;;;;21.58;10.00;;;6.70;99.90;;;;;;5069346;28;20021;-60
2022/02/08 01:09:24;;;;;;;27.85;10.55;;;6.70;99.90;;;;;;5069928;28;20024;-60
2022/02/08 01:11:52;;;;;;;22.92;10.68;;;6.70;99.90;;;;;;5068079;28;20041;-60
2022/02/08 01:14:19;;;;;;;22.10;11.65;;;6.70;99.90;;;;;;5067129;28;20024;-60
2022/02/08 01:16:45;;;;;;;20.25;10.85;;;6.70;99.90;;;;;;5067466;28;20052;-60
2022/02/08 01:19:11;;;;;;;25.00;12.15;;;6.80;99.90;;;;;;5064295;28;20023;-61
2022/02/08 01:21:36;;;;;;;24.98;13.10;;;6.80;99.90;;;;;;5069970;28;20463;-60
2022/02/08 01:24:03;;;;;;;26.13;14.55;;;6.80;99.90;;;;;;5071260;28;20473;-60
2022/02/08 01:26:30;;;;;;;25.90;13.65;;;6.80;99.90;;;;;;5074313;28;20506;-60
2022/02/08 01:31:22;;;;;;;30.42;17.00;;;6.80;99.90;;;;;;5071246;28;20024;-60
2022/02/08 01:39:44;;;;;;;29.98;18.27;;;6.80;99.90;;;;;;5038359;28;20174;-60
2022/02/08 01:42:25;;;;;;;32.00;20.13;;;6.90;99.90;;;;;;5064797;28;20029;-60
2022/02/08 01:47:29;;;;;;;33.85;19.35;;;6.90;99.90;;;;;;5063770;28;20052;-60
2022/02/08 01:50:11;;;;;;;33.92;21.65;;;6.90;99.90;;;;;;5063129;28;20099;-60
2022/02/08 01:52:40;;;;;;;38.08;23.15;;;6.90;99.90;;;;;;5069524;28;20032;-60
2022/02/08 01:55:09;;;;;;;47.53;24.80;;;6.90;99.90;;;;;;5067819;28;20021;-60
2022/02/08 01:57:36;;;;;;;33.03;21.60;;;7.00;99.90;;;;;;5065832;28;20052;-60
2022/02/08 02:00:04;;;;;;;36.38;22.85;;;7.00;99.90;;;;;;5073576;28;20058;-60
2022/02/08 02:02:29;;;;;;;36.80;24.65;;;7.00;99.90;;;;;;5073092;28;20036;-60
2022/02/08 02:04:55;;;;;;;41.53;26.02;;;7.10;99.90;;;;;;5072004;28;20031;-60
2022/02/08 02:07:21;;;;;;;38.40;25.20;;;7.10;99.90;;;;;;5067950;28;20116;-60
2022/02/08 02:09:47;;;;;;;37.83;25.15;;;7.10;99.90;;;;;;5070406;28;20021;-60
2022/02/08 02:12:13;;;;;;;39.60;26.55;;;7.10;99.90;;;;;;5070375;28;20111;-61
2022/02/08 02:14:40;;;;;;;43.38;27.35;;;7.20;99.90;;;;;;5067666;28;20419;-60
2022/02/08 02:17:08;;;;;;;43.63;27.80;;;7.20;99.90;;;;;;5064184;28;20044;-60
2022/02/08 02:19:35;;;;;;;41.30;27.58;;;7.10;99.90;;;;;;5080241;28;20483;-60
2022/02/08 02:22:02;;;;;;;42.92;27.52;;;7.20;99.90;;;;;;5078016;28;20037;-60
2022/02/08 02:24:28;;;;;;;44.13;29.05;;;7.20;99.90;;;;;;5068429;28;20633;-60
2022/02/08 02:26:56;;;;;;;46.08;29.55;;;7.20;99.90;;;;;;5060669;28;20021;-60
2022/02/08 02:29:22;;;;;;;42.78;28.95;;;7.20;99.90;;;;;;5067587;28;20036;-60
2022/02/08 02:31:48;;;;;;;51.03;29.42;;;7.20;99.90;;;;;;5067157;28;20601;-60
2022/02/08 02:34:19;;;;;;;46.03;30.02;;;7.30;99.90;;;;;;5067566;28;20145;-60
2022/02/08 02:36:46;;;;;;;40.67;28.77;;;7.30;99.90;;;;;;5064317;28;20021;-60
2022/02/08 02:39:12;;;;;;;41.72;30.00;;;7.30;99.90;;;;;;5069856;28;20086;-60
2022/02/08 02:41:42;;;;;;;43.83;29.55;;;7.30;99.90;;;;;;5066868;28;20020;-60
2022/02/08 02:44:10;;;;;;;44.85;29.23;;;7.30;99.90;;;;;;5069742;28;20783;-60
2022/02/08 02:46:37;;;;;;;45.33;29.27;;;7.40;99.90;;;;;;5064596;28;20101;-60
2022/02/08 02:49:03;;;;;;;47.95;31.83;;;7.40;99.90;;;;;;5064350;28;20021;-60
2022/02/08 02:51:29;;;;;;;47.60;31.40;;;7.50;99.90;;;;;;5069229;28;20500;-60
2022/02/08 02:53:55;;;;;;;47.20;31.17;;;7.50;99.90;;;;;;5066815;28;20036;-60
2022/02/08 02:56:21;;;;;;;47.00;30.05;;;7.50;99.90;;;;;;5070894;28;20028;-60
2022/02/08 02:58:47;;;;;;;44.08;31.92;;;7.60;99.90;;;;;;5064145;28;20024;-60
2022/02/08 03:01:30;;;;;;;45.58;30.83;;;7.60;99.90;;;;;;5069393;28;20029;-60
2022/02/08 03:04:07;;;;;;;51.05;30.75;;;7.60;99.90;;;;;;5065923;28;20089;-60
2022/02/08 03:20:27;;;;;;;47.08;29.75;;;7.80;99.90;;;;;;5068417;28;20035;-60
2022/02/08 03:22:53;;;;;;;46.17;28.50;;;7.90;99.90;;;;;;5066066;28;20029;-60
2022/02/08 03:25:18;;;;;;;42.25;27.27;;;7.90;99.90;;;;;;5068910;28;20028;-60
2022/02/08 03:27:44;;;;;;;42.03;27.42;;;8.00;99.90;;;;;;5069433;28;20524;-60
2022/02/08 03:30:09;;;;;;;39.13;27.15;;;8.00;99.90;;;;;;5068627;28;20032;-60
2022/02/08 03:32:35;;;;;;;38.05;25.52;;;8.00;99.90;;;;;;5063281;28;20104;-60
2022/02/08 03:35:01;;;;;;;39.58;24.13;;;8.10;99.90;;;;;;5063194;28;20082;-60
2022/02/08 03:37:29;;;;;;;35.35;24.75;;;8.10;99.90;;;;;;5069211;28;20032;-60
2022/02/08 03:40:00;;;;;;;40.40;24.58;;;8.20;99.90;;;;;;5071854;28;20039;-60
2022/02/08 03:42:35;;;;;;;36.38;23.80;;;8.20;99.90;;;;;;5067257;28;20028;-60
2022/02/08 03:45:03;;;;;;;33.05;23.35;;;8.20;99.90;;;;;;5067199;28;20025;-61
2022/02/08 03:47:28;;;;;;;34.03;23.67;;;8.30;99.90;;;;;;5068812;28;20024;-60
2022/02/08 03:49:54;;;;;;;35.35;21.95;;;8.30;99.90;;;;;;5059229;28;20408;-60
2022/02/08 03:52:23;;;;;;;37.80;24.52;;;8.30;99.90;;;;;;5066059;28;20428;-60
2022/02/08 03:54:49;;;;;;;37.88;23.83;;;8.40;99.90;;;;;;5068748;28;20100;-60
2022/02/08 03:57:16;;;;;;;35.28;22.45;;;8.40;99.90;;;;;;5063187;28;20082;-60
2022/02/08 03:59:41;;;;;;;36.17;23.63;;;8.40;99.90;;;;;;5068720;28;20025;-60
2022/02/08 04:02:44;;;;;;;36.58;22.52;;;8.40;99.90;;;;;;5065803;28;20404;-60
2022/02/08 04:05:07;;;;;;;33.65;22.45;;;8.40;99.90;;;;;;5058625;28;20090;-60
2022/02/08 04:07:47;;;;;;;36.08;22.95;;;8.40;99.90;;;;;;5068484;28;20052;-60
2022/02/08 04:10:20;;;;;;;33.15;21.38;;;8.40;99.90;;;;;;5065570;28;20021;-60
2022/02/08 04:32:10;;;;;;;29.95;22.27;;;8.60;99.90;;;;;;5066335;28;20032;-60
2022/02/08 04:35:40;;;;;;;31.27;22.48;;;8.60;99.90;;;;;;5064853;28;20031;-60
2022/02/08 04:43:00;;;;;;;30.30;20.42;;;8.60;99.90;;;;;;5066579;28;20154;-60
2022/02/08 04:45:37;;;;;;;30.67;19.95;;;8.60;99.90;;;;;;5068033;28;20533;-60
2022/02/08 04:48:10;;;;;;;29.23;19.70;;;8.60;99.90;;;;;;5068558;28;20021;-60
2022/02/08 04:50:38;;;;;;;32.20;20.52;;;8.60;99.90;;;;;;5066643;28;20073;-60
2022/02/08 04:53:12;;;;;;;30.25;20.38;;;8.60;99.90;;;;;;5071790;28;20038;-60
2022/02/08 04:55:54;;;;;;;27.90;19.38;;;8.60;99.90;;;;;;5071793;28;20047;-60
2022/02/08 04:58:34;;;;;;;30.60;19.92;;;8.50;99.90;;;;;;5067223;28;20036;-60
2022/02/08 05:01:22;;;;;;;24.60;18.00;;;8.60;99.90;;;;;;5069475;28;20029;-60
2022/02/08 05:29:20;;;;;;;25.33;17.30;;;8.60;99.90;;;;;;5065834;28;20028;-60
2022/02/08 05:34:28;;;;;;;23.95;17.88;;;8.60;99.90;;;;;;5066141;28;20521;-60
2022/02/08 05:42:30;;;;;;;22.55;17.33;;;8.60;99.90;;;;;;5068214;28;20047;-60
2022/02/08 05:45:13;;;;;;;22.27;17.05;;;8.70;99.90;;;;;;5062762;28;20032;-60
2022/02/08 05:47:42;;;;;;;23.58;17.40;;;8.70;99.90;;;;;;5068668;28;20025;-60
2022/02/08 05:50:22;;;;;;;24.30;16.50;;;8.70;99.90;;;;;;5071053;28;20024;-60
2022/02/08 05:52:51;;;;;;;21.30;17.40;;;8.70;99.90;;;;;;5069805;28;20029;-60
2022/02/08 05:55:17;;;;;;;23.88;17.60;;;8.70;99.90;;;;;;5068210;28;20028;-60
2022/02/08 05:57:43;;;;;;;25.08;19.40;;;8.70;99.90;;;;;;5065219;28;20183;-60
2022/02/08 06:00:11;;;;;;;22.85;17.45;;;8.70;99.90;;;;;;5069515;28;20023;-60
2022/02/08 06:02:36;;;;;;;25.98;17.95;;;8.70;99.90;;;;;;5067796;28;20024;-60
2022/02/08 06:05:02;;;;;;;24.88;18.98;;;8.70;99.90;;;;;;5059391;28;20036;-60
2022/02/08 06:07:28;;;;;;;23.95;18.63;;;8.70;99.90;;;;;;5066814;28;20446;-60
2022/02/08 06:09:55;;;;;;;26.05;19.67;;;8.70;99.90;;;;;;5070273;28;20100;-60
2022/02/08 06:12:25;;;;;;;27.08;20.25;;;8.70;99.90;;;;;;5070708;28;20357;-60
2022/02/08 06:15:05;;;;;;;;;;;8.70;99.90;;;;;;5067731;28;20082;-60
2022/02/08 06:17:31;;;;;;;23.65;17.63;;;8.60;99.90;;;;;;5067188;28;19948;-60
2022/02/08 06:19:56;;;;;;;25.60;18.90;;;8.60;99.90;;;;;;5064797;28;20484;-60
2022/02/08 06:22:23;;;;;;;26.02;20.20;;;8.60;99.90;;;;;;5070116;28;20053;-60
2022/02/08 06:25:02;;;;;;;26.02;20.30;;;8.60;99.90;;;;;;5070321;28;20031;-61
2022/02/08 06:27:29;;;;;;;27.52;19.83;;;8.70;99.90;;;;;;5069357;28;20042;-60
2022/02/08 06:29:57;;;;;;;28.65;20.45;;;8.60;99.90;;;;;;5067227;28;20111;-60
2022/02/08 06:32:22;;;;;;;28.13;21.05;;;8.60;99.90;;;;;;5070463;28;20528;-60
2022/02/08 06:34:48;;;;;;;27.90;20.45;;;8.60;99.90;;;;;;5073540;28;20324;-60
2022/02/08 06:37:16;;;;;;;27.80;21.05;;;8.60;99.90;;;;;;5073268;28;20024;-60
2022/02/08 06:39:50;;;;;;;25.67;20.13;;;8.60;99.90;;;;;;5072773;28;20016;-60
2022/02/08 06:42:15;;;;;;;24.73;19.50;;;8.70;99.90;;;;;;5073139;28;20036;-60
2022/02/08 06:44:41;;;;;;;27.60;21.73;;;8.60;99.90;;;;;;5073629;28;20016;-59
2022/02/08 06:47:06;;;;;;;29.20;21.10;;;8.60;99.90;;;;;;5073388;28;20024;-60
2022/02/08 06:49:42;;;;;;;28.23;21.65;;;8.60;99.90;;;;;;5072721;28;20058;-60
2022/02/08 06:52:08;;;;;;;29.42;21.58;;;8.60;99.90;;;;;;5073638;28;20020;-60
2022/02/08 06:54:49;;;;;;;;;;;;;;;;;;;;;
2022/02/08 06:57:15;;;;;;;29.02;19.58;;;8.60;99.90;;;;;;5072577;28;20020;-60
2022/02/08 06:59:49;;;;;;;27.90;20.40;;;8.60;99.90;;;;;;5071871;28;20095;-60
2022/02/08 07:02:28;;;;;;;;;;;;;;;;;;;;;
2022/02/08 07:04:54;;;;;;;26.75;20.92;;;8.60;99.90;;;;;;5069391;28;20016;-60
2022/02/08 07:07:19;;;;;;;23.23;18.08;;;8.60;99.90;;;;;;5069222;28;20040;-59
2022/02/08 07:09:46;;;;;;;25.67;20.40;;;8.60;99.90;;;;;;5068154;28;20036;-60
2022/02/08 07:12:12;;;;;;;27.27;20.95;;;8.60;99.90;;;;;;5069128;28;20051;-59
2022/02/08 07:14:38;;;;;;;28.38;20.77;;;8.60;99.90;;;;;;5084935;28;20103;-60
2022/02/08 07:17:38;;;;;;;26.98;21.02;;;8.60;99.90;;;;;;5067541;28;20052;-60
2022/02/08 07:20:04;;;;;;;27.08;20.70;;;8.60;99.90;;;;;;5082214;28;20041;-60
2022/02/08 07:22:31;;;;;;;30.33;21.58;;;8.60;99.90;;;;;;5051650;28;20083;-59
2022/02/08 07:24:58;;;;;;;26.70;19.67;;;8.60;99.90;;;;;;5052064;28;20051;-60
2022/02/08 07:27:24;;;;;;;26.73;20.48;;;8.60;99.90;;;;;;5085003;28;20051;-59
2022/02/08 07:29:52;;;;;;;25.55;20.13;;;8.60;99.90;;;;;;5068300;28;20115;-60
2022/02/08 07:32:19;;;;;;;24.38;18.92;;;8.70;99.90;;;;;;5070989;28;20024;-59
2022/02/08 07:34:51;;;;;;;23.92;18.88;;;8.70;99.90;;;;;;5069955;28;20048;-60
2022/02/08 07:37:22;;;;;;;26.52;20.20;;;8.70;99.90;;;;;;5071456;28;20443;-60
2022/02/08 07:39:52;;;;;;;29.95;20.30;;;8.70;99.90;;;;;;5071197;28;20107;-59
2022/02/08 07:42:18;;;;;;;;;;;8.70;99.90;;;;;;5071510;28;20108;-59
2022/02/08 07:44:45;;;;;;;25.83;18.52;;;8.70;99.90;;;;;;5070988;28;19999;-60
2022/02/08 07:47:16;;;;;;;26.42;18.40;;;8.60;99.90;;;;;;5071652;28;20025;-60
2022/02/08 07:49:41;;;;;;;22.80;16.75;;;8.70;99.90;;;;;;5068693;28;20009;-60
2022/02/08 07:52:08;;;;;;;20.48;15.27;;;8.70;99.90;;;;;;5070754;28;20548;-59
2022/02/08 07:54:44;;;;;;;22.20;17.20;;;8.70;99.90;;;;;;5069723;28;20476;-60
2022/02/08 07:57:10;;;;;;;23.60;16.75;;;8.80;99.90;;;;;;5071119;28;20024;-60
2022/02/08 07:59:35;;;;;;;22.23;16.42;;;8.70;99.90;;;;;;5072533;28;20082;-60
2022/02/08 08:02:01;;;;;;;20.92;16.48;;;8.80;99.90;;;;;;5072462;28;20120;-60
2022/02/08 08:04:27;;;;;;;23.98;17.08;;;8.80;99.90;;;;;;5071930;28;20099;-60
2022/02/08 08:06:52;;;;;;;22.45;16.63;;;8.80;99.90;;;;;;5071220;28;20032;-59
2022/02/08 08:09:19;;;;;;;21.95;15.68;;;8.80;99.90;;;;;;5072304;28;20025;-60
2022/02/08 08:11:47;;;;;;;22.80;16.10;;;8.80;99.90;;;;;;5070256;28;20021;-60
2022/02/08 08:14:13;;;;;;;22.08;15.65;;;8.90;99.90;;;;;;5071927;28;20404;-60
2022/02/08 08:17:56;;;;;;;24.13;15.00;;;8.90;99.90;;;;;;5070967;28;20040;-60
2022/02/08 08:19:50;;;;;;;19.80;14.82;;;8.90;99.90;;;;;;5066344;28;20103;-59
2022/02/08 08:22:17;;;;;;;23.98;16.15;;;8.90;99.90;;;;;;5071599;28;20032;-60
2022/02/08 08:24:43;;;;;;;21.30;14.77;;;8.90;99.90;;;;;;5075128;28;20029;-60
2022/02/08 08:27:09;;;;;;;20.50;14.52;;;8.90;99.90;;;;;;5090504;28;20034;-60
2022/02/08 08:29:34;;;;;;;22.02;13.38;;;9.00;99.90;;;;;;5072357;28;20447;-60
2022/02/08 08:32:00;;;;;;;20.05;13.10;;;9.00;99.90;;;;;;5071456;28;20032;-60
2022/02/08 08:34:26;;;;;;;16.95;12.18;;;9.10;99.90;;;;;;5071589;28;20021;-59
2022/02/08 08:36:52;;;;;;;16.02;12.20;;;9.10;99.90;;;;;;5071540;28;20465;-60
2022/02/08 08:39:23;;;;;;;17.88;11.23;;;9.10;99.90;;;;;;5071557;28;20362;-59
2022/02/08 08:42:22;;;;;;;14.73;11.70;;;9.10;99.90;;;;;;5072324;28;20029;-59
2022/02/08 08:45:14;;;;;;;16.27;10.50;;;9.20;99.90;;;;;;5072178;28;20052;-60
2022/02/08 08:50:18;;;;;;;16.25;9.98;;;9.20;99.90;;;;;;5072408;28;20028;-60
2022/02/08 08:52:46;;;;;;;12.18;8.30;;;9.30;99.90;;;;;;5070602;28;20033;-59
2022/02/08 08:55:16;;;;;;;17.85;9.00;;;9.30;99.90;;;;;;5072143;28;20025;-60
2022/02/08 08:57:42;;;;;;;15.88;8.48;;;9.40;99.90;;;;;;5072800;28;20653;-60
2022/02/08 09:00:09;;;;;;;12.15;8.15;;;9.40;99.90;;;;;;5072640;28;20036;-60
2022/02/08 09:02:35;;;;;;;14.15;7.68;;;9.50;99.90;;;;;;5072334;28;20029;-59
2022/02/08 09:05:04;;;;;;;13.77;7.80;;;9.50;99.90;;;;;;5072225;28;20025;-60
2022/02/08 09:07:31;;;;;;;13.07;7.90;;;9.60;99.90;;;;;;5070944;28;20056;-59
2022/02/08 09:09:59;;;;;;;13.63;8.15;;;9.60;99.90;;;;;;5071927;28;20224;-59
2022/02/08 09:12:27;;;;;;;11.57;6.20;;;9.70;99.90;;;;;;5086987;28;20033;-60
2022/02/08 09:15:14;;;;;;;13.23;6.50;;;9.80;99.90;;;;;;5072381;28;20055;-60
2022/02/08 09:18:21;;;;;;;13.20;6.55;;;9.80;99.90;;;;;;5071564;28;20546;-59
2022/02/08 09:21:19;;;;;;;13.00;5.70;;;9.90;99.90;;;;;;5071751;28;20131;-59
2022/02/08 09:27:04;;;;;;;9.75;4.07;;;10.00;99.90;;;;;;5077381;28;20019;-60
2022/02/08 09:28:59;;;;;;;9.77;2.13;;;10.00;99.90;;;;;;5089173;28;20484;-60
2022/02/08 09:31:27;;;;;;;;;;;10.10;99.90;;;;;;5108384;28;20104;-60
2022/02/08 09:33:58;;;;;;;6.63;1.58;;;10.20;99.90;;;;;;5081014;28;19912;-60
2022/02/08 09:36:26;;;;;;;10.63;1.65;;;10.20;99.90;;;;;;5051481;28;20044;-60
2022/02/08 09:38:53;;;;;;;5.95;0.90;;;10.30;99.90;;;;;;5055635;28;20476;-60
2022/02/08 09:41:22;;;;;;;5.82;1.60;;;10.40;99.90;;;;;;5071295;28;20033;-59
2022/02/08 09:43:49;;;;;;;5.95;0.95;;;10.40;99.90;;;;;;5072069;28;20120;-59
2022/02/08 09:46:16;;;;;;;7.28;1.42;;;10.50;99.90;;;;;;5072194;28;20517;-60
2022/02/08 09:48:59;;;;;;;3.17;1.00;;;10.50;99.90;;;;;;5071702;28;20056;-60
2022/02/08 09:51:27;;;;;;;9.25;1.42;;;10.60;99.90;;;;;;5071367;28;20032;-60
2022/02/08 09:53:56;;;;;;;6.90;1.05;;;10.70;99.90;;;;;;5071486;28;20040;-59
2022/02/08 09:56:24;;;;;;;6.40;0.90;;;10.70;99.90;;;;;;5071557;28;20112;-60
2022/02/08 09:58:50;;;;;;;6.47;1.27;;;10.80;99.90;;;;;;5066465;28;20032;-60
2022/02/08 10:01:22;;;;;;;3.50;0.68;;;10.80;99.90;;;;;;5070254;28;20460;-60
2022/02/08 10:03:59;;;;;;;5.28;0.98;;;10.90;99.90;;;;;;5068704;28;20389;-60
2022/02/08 10:06:26;;;;;;;5.10;0.80;;;11.00;99.90;;;;;;5067466;28;20060;-60
2022/02/08 10:09:03;;;;;;;3.05;0.80;;;11.00;99.90;;;;;;5069701;28;20539;-60
2022/02/08 10:11:39;;;;;;;5.88;0.85;;;11.10;99.90;;;;;;5068866;28;20077;-60
2022/02/08 10:14:19;;;;;;;4.32;0.98;;;11.10;99.90;;;;;;5070401;28;20020;-60
2022/02/08 10:20:34;;;;;;;8.87;1.23;;;11.10;99.90;;;;;;5069718;28;20047;-60
2022/02/08 10:22:42;;;;;;;5.50;0.90;;;11.10;99.90;;;;;;5063927;28;20039;-60
2022/02/08 10:25:10;;;;;;;6.72;1.00;;;11.10;99.90;;;;;;5070524;28;20056;-60
2022/02/08 10:27:44;;;;;;;5.95;0.98;;;11.20;99.90;;;;;;5088785;28;20024;-60
2022/02/08 10:38:43;;;;;;;7.47;1.13;;;11.30;99.90;;;;;;5069687;28;20694;-61
2022/02/08 10:41:14;;;;;;;4.70;0.63;;;11.40;99.90;;;;;;5069753;28;20078;-60
2022/02/08 10:43:40;;;;;;;7.20;0.70;;;11.40;99.90;;;;;;5070246;28;20036;-60
2022/02/08 10:46:19;;;;;;;8.18;0.85;;;11.40;99.90;;;;;;5069309;28;20355;-60
2022/02/08 10:48:45;;;;;;;5.97;1.00;;;11.50;99.90;;;;;;5069244;28;20385;-60
2022/02/08 10:51:13;;;;;;;5.82;1.00;;;11.50;99.90;;;;;;5069479;28;20032;-60
2022/02/08 10:53:51;;;;;;;6.32;0.73;;;11.50;99.90;;;;;;5070002;28;20025;-60
2022/02/08 10:56:20;;;;;;;4.10;0.73;;;11.50;99.90;;;;;;5068567;28;20638;-60
2022/02/08 10:58:53;;;;;;;4.80;0.70;;;11.50;99.90;;;;;;5069761;28;20043;-60
2022/02/08 11:01:24;;;;;;;5.40;0.73;;;11.50;99.90;;;;;;5063695;28;20478;-61
2022/02/08 11:04:13;;;;;;;3.08;0.63;;;11.60;99.90;;;;;;5069797;28;20031;-61
2022/02/08 11:06:46;;;;;;;3.40;0.70;;;11.60;99.90;;;;;;5069713;28;20032;-60
2022/02/08 11:22:41;;;;;;;4.45;0.70;;;11.60;99.90;;;;;;5069800;28;20119;-60
2022/02/08 11:25:20;;;;;;;4.57;0.80;;;11.60;99.90;;;;;;5068457;28;20396;-60
2022/02/08 11:27:50;;;;;;;4.00;0.60;;;11.70;99.60;;;;;;5071817;28;20025;-60
2022/02/08 11:30:44;;;;;;;5.30;0.80;;;11.70;99.40;;;;;;5068526;28;20028;-60
2022/02/08 11:39:26;;;;;;;4.25;0.60;;;11.70;99.00;;;;;;5069712;28;19966;-60
2022/02/08 11:51:05;;;;;;;2.97;0.50;;;11.90;98.30;;;;;;5069612;28;20032;-60
2022/02/08 11:53:31;;;;;;;4.97;0.85;;;11.90;98.20;;;;;;5069290;28;20384;-60
2022/02/08 12:10:02;;;;;;;5.25;0.50;;;12.10;97.00;;;;;;5065854;28;20121;-60
2022/02/08 12:30:18;;;;;;;2.38;0.52;;;12.30;96.40;;;;;;5089863;28;20027;-61
2022/02/08 12:35:42;;;;;;;4.22;0.60;;;12.20;96.20;;;;;;5049401;28;20037;-60
2022/02/08 12:55:05;;;;;;;5.28;0.70;;;12.20;96.00;;;;;;5048772;28;20447;-61
2022/02/08 12:57:42;;;;;;;1.65;0.30;;;12.20;95.80;;;;;;5048883;28;20025;-60
2022/02/08 14:19:07;;;;;;;3.05;0.55;;;12.00;95.80;;;;;;5070468;28;20028;-60
2022/02/08 14:21:41;;;;;;;5.05;0.60;;;12.00;95.80;;;;;;5054616;28;20056;-61
2022/02/08 14:29:28;;;;;;;3.90;0.68;;;12.00;96.00;;;;;;5061156;28;20751;-61
2022/02/08 15:09:59;;;;;;;2.83;0.45;;;12.20;95.90;;;;;;5063825;28;20016;-61
2022/02/08 15:12:42;;;;;;;5.55;0.70;;;12.10;96.00;;;;;;5069920;28;20469;-61
2022/02/08 15:15:38;;;;;;;7.43;1.38;;;12.10;95.90;;;;;;5072382;28;20023;-61
2022/02/08 15:18:09;;;;;;;;;;;;;;;;;;;;;
2022/02/08 15:20:35;;;;;;;5.20;0.57;;;12.10;95.90;;;;;;5067723;28;20029;-61
2022/02/08 15:23:03;;;;;;;2.45;0.50;;;12.10;96.00;;;;;;5067255;28;20404;-61
2022/02/08 15:25:55;;;;;;;;;;;;;;;;;;;;;
2022/02/08 15:28:23;;;;;;;6.03;0.68;;;12.10;95.90;;;;;;5067614;28;20024;-60
2022/02/08 15:30:51;;;;;;;3.92;0.55;;;12.10;95.90;;;;;;5068896;28;20487;-61
2022/02/08 15:33:17;;;;;;;4.68;1.23;;;12.00;95.90;;;;;;5064983;28;20143;-61
2022/02/08 15:35:42;;;;;;;5.78;0.82;;;12.00;95.90;;;;;;5068207;28;20429;-60
2022/02/08 15:38:08;;;;;;;2.92;0.75;;;12.00;95.80;;;;;;5066485;28;20582;-61
2022/02/08 15:40:34;;;;;;;2.90;0.40;;;12.00;95.80;;;;;;5066709;28;20032;-61
2022/02/08 15:43:00;;;;;;;3.28;0.77;;;12.00;96.00;;;;;;5080686;28;20024;-61
2022/02/08 15:45:37;;;;;;;1.90;0.50;;;11.90;96.10;;;;;;5066928;28;20388;-60
2022/02/08 15:48:07;;;;;;;3.47;0.50;;;11.90;96.00;;;;;;5068320;28;20008;-60
2022/02/08 15:53:24;;;;;;;4.97;0.75;;;11.80;96.10;;;;;;5068166;28;20399;-60
2022/02/08 15:56:52;;;;;;;4.28;0.60;;;11.70;96.20;;;;;;5067505;28;20103;-60
2022/02/08 16:07:14;;;;;;;7.20;0.80;;;11.70;96.20;;;;;;5068695;28;20035;-60
2022/02/08 16:09:49;;;;;;;2.85;0.60;;;11.70;96.20;;;;;;5071914;28;20017;-61
2022/02/08 16:20:33;;;;;;;5.65;0.77;;;11.60;96.00;;;;;;5070476;28;20102;-61
2022/02/08 16:25:56;;;;;;;5.40;0.80;;;11.50;96.20;;;;;;5071394;28;20384;-61
2022/02/08 16:28:49;;;;;;;2.65;0.60;;;11.60;96.30;;;;;;5069175;28;20029;-61
2022/02/08 16:45:58;;;;;;;5.20;0.63;;;11.40;96.50;;;;;;5070820;28;20488;-61
2022/02/08 16:48:55;;;;;;;4.88;0.52;;;11.40;96.90;;;;;;5074687;28;20383;-61
2022/02/08 16:58:23;;;;;;;6.30;1.70;;;11.30;97.30;;;;;;5076115;28;20138;-61
2022/02/08 17:00:50;;;;;;;3.85;1.20;;;11.30;97.40;;;;;;5075638;28;20032;-61
2022/02/08 17:03:22;;;;;;;6.40;1.30;;;11.30;97.50;;;;;;5075108;28;20033;-61
2022/02/08 17:06:03;;;;;;;5.28;1.30;;;11.30;97.70;;;;;;5075706;28;20028;-60
2022/02/08 17:08:29;;;;;;;4.85;1.38;;;11.30;97.70;;;;;;5073733;28;20032;-60
2022/02/08 17:10:58;;;;;;;5.13;1.42;;;11.30;97.80;;;;;;5074206;28;20465;-61
2022/02/08 17:46:57;;;;;;;3.50;1.10;;;11.20;98.00;;;;;;5071522;28;20058;-61
2022/02/08 17:49:30;;;;;;;2.50;0.70;;;11.20;98.00;;;;;;5072021;28;20050;-60
2022/02/08 17:51:56;;;;;;;4.30;0.90;;;11.20;98.00;;;;;;5071919;28;20068;-61
2022/02/08 17:54:21;;;;;;;3.60;1.17;;;11.20;98.10;;;;;;5071831;28;20063;-61
2022/02/08 18:00:12;;;;;;;3.00;0.93;;;11.20;98.10;;;;;;5061904;28;20040;-61
2022/02/08 18:02:39;;;;;;;6.18;0.98;;;11.10;98.10;;;;;;5069514;28;20047;-61
2022/02/08 18:05:54;;;;;;;5.80;1.17;;;11.10;98.10;;;;;;5067706;28;20025;-60
2022/02/08 18:08:21;;;;;;;7.00;1.58;;;11.10;98.00;;;;;;5069496;28;20423;-60
2022/02/08 18:10:48;;;;;;;5.10;2.30;;;11.00;98.50;;;;;;5071183;28;20078;-61
2022/02/08 18:13:18;;;;;;;5.85;2.05;;;11.00;98.30;;;;;;5071375;28;20488;-61
2022/02/08 18:15:44;;;;;;;;;;;11.00;98.30;;;;;;5071815;28;20056;-60
2022/02/08 18:18:36;;;;;;;5.22;2.40;;;10.90;98.30;;;;;;5071172;28;20005;-60
2022/02/08 18:21:08;;;;;;;7.53;3.38;;;10.80;98.50;;;;;;5070757;28;20037;-61
2022/02/08 18:56:29;;;;;;;6.05;3.40;;;10.80;98.40;;;;;;5050685;28;20086;-60
2022/02/08 19:18:33;;;;;;;7.07;4.55;;;10.70;98.50;;;;;;5069945;28;20492;-60
2022/02/08 19:23:51;;;;;;;4.95;3.95;;;10.70;98.40;;;;;;5066927;28;20086;-60
2022/02/08 19:26:33;;;;;;;7.32;5.13;;;10.60;98.40;;;;;;5076797;28;20032;-61
2022/02/08 19:29:30;;;;;;;9.02;4.63;;;10.70;98.40;;;;;;5090258;28;20032;-61
2022/02/08 19:31:55;;;;;;;7.38;4.90;;;10.70;98.30;;;;;;5090374;28;20029;-60
2022/02/08 19:34:21;;;;;;;11.43;5.43;;;10.60;98.40;;;;;;5088712;28;20065;-60
2022/02/08 19:36:49;;;;;;;9.95;5.15;;;10.60;98.30;;;;;;5089854;28;20524;-60
2022/02/08 19:39:15;;;;;;;7.75;5.25;;;10.60;98.30;;;;;;5090266;28;20028;-60
2022/02/08 19:41:41;;;;;;;6.30;4.60;;;10.60;98.30;;;;;;5074457;28;20032;-60
2022/02/08 19:44:32;;;;;;;8.65;5.10;;;10.60;98.20;;;;;;5068035;28;20092;-61
2022/02/08 19:47:21;;;;;;;12.80;6.20;;;10.60;98.20;;;;;;5062072;28;20059;-61
2022/02/08 19:49:54;;;;;;;10.55;6.00;;;10.60;98.30;;;;;;5070142;28;20033;-61
2022/02/08 19:52:21;;;;;;;8.60;5.28;;;10.50;98.40;;;;;;5069452;28;20029;-60
2022/02/08 19:55:17;;;;;;;9.20;5.18;;;10.50;98.50;;;;;;5069818;28;20028;-60
2022/02/08 19:57:41;;;;;;;11.38;6.13;;;10.50;98.50;;;;;;5069409;28;20502;-61
2022/02/08 20:00:10;;;;;;;6.65;5.30;;;10.50;98.60;;;;;;5070021;28;20084;-61
2022/02/08 20:02:43;;;;;;;8.27;5.35;;;10.50;98.60;;;;;;5069649;28;20359;-60
2022/02/08 20:05:08;;;;;;;8.10;5.93;;;10.40;98.60;;;;;;5069203;28;20104;-61
2022/02/08 20:07:34;;;;;;;10.90;5.43;;;10.40;98.60;;;;;;5069235;28;20456;-60
2022/02/08 20:10:00;;;;;;;8.50;5.57;;;10.40;98.60;;;;;;5087256;28;20032;-60
2022/02/08 20:12:56;;;;;;;11.30;5.93;;;10.40;98.60;;;;;;5062882;28;20047;-60
2022/02/08 20:15:23;;;;;;;8.75;5.85;;;10.40;98.60;;;;;;5065020;28;20062;-60
2022/02/08 20:17:50;;;;;;;8.85;6.05;;;10.40;98.70;;;;;;5069259;28;20127;-60
2022/02/08 20:20:18;;;;;;;9.35;5.90;;;10.40;98.70;;;;;;5069090;28;20055;-61
2022/02/08 20:22:52;;;;;;;9.57;5.75;;;10.40;98.70;;;;;;5072446;28;20032;-60
2022/02/08 20:25:20;;;;;;;10.05;5.68;;;10.40;98.70;;;;;;5073501;28;20074;-60